sensor_id;sensor_type;location;lat;lon;timestamp;temperature;humidity
19536;HTU21D;9913;51.168;4.124;2024-02-26T00:01:16;6.83;94.40
19536;HTU21D;9913;51.168;4.124;2024-02-26T00:03:45;6.84;93.82
19536;HTU21D;9913;51.168;4.124;2024-02-26T00:06:14;6.89;94.55
19536;HTU21D;9913;51.168;4.124;2024-02-26T00:08:42;6.90;94.20
19536;HTU21D;9913;51.168;4.124;2024-02-26T00:11:11;6.90;93.85
19536;HTU21D;9913;51.168;4.124;2024-02-26T00:13:39;6.90;93.75
19536;HTU21D;9913;51.168;4.124;2024-02-26T00:16:07;6.88;94.11
19536;HTU21D;9913;51.168;4.124;2024-02-26T00:18:36;6.84;94.44
19536;HTU21D;9913;51.168;4.124;2024-02-26T00:21:06;6.82;93.69
19536;HTU21D;9913;51.168;4.124;2024-02-26T00:23:34;6.75;93.21
19536;HTU21D;9913;51.168;4.124;2024-02-26T00:26:03;6.75;93.43
19536;HTU21D;9913;51.168;4.124;2024-02-26T00:28:31;6.73;93.45
19536;HTU21D;9913;51.168;4.124;2024-02-26T00:30:59;6.67;93.51
19536;HTU21D;9913;51.168;4.124;2024-02-26T00:33:28;6.67;93.17
19536;HTU21D;9913;51.168;4.124;2024-02-26T00:35:56;6.65;92.84
19536;HTU21D;9913;51.168;4.124;2024-02-26T00:38:26;6.66;92.82
19536;HTU21D;9913;51.168;4.124;2024-02-26T00:40:54;6.60;93.03
19536;HTU21D;9913;51.168;4.124;2024-02-26T00:43:23;6.60;92.54
19536;HTU21D;9913;51.168;4.124;2024-02-26T00:45:51;6.63;92.54
19536;HTU21D;9913;51.168;4.124;2024-02-26T00:48:20;6.60;92.34
19536;HTU21D;9913;51.168;4.124;2024-02-26T00:50:48;6.56;92.66
19536;HTU21D;9913;51.168;4.124;2024-02-26T00:53:16;6.54;92.55
19536;HTU21D;9913;51.168;4.124;2024-02-26T00:55:46;6.55;92.48
19536;HTU21D;9913;51.168;4.124;2024-02-26T00:58:15;6.56;92.82
19536;HTU21D;9913;51.168;4.124;2024-02-26T01:00:43;6.54;92.35
19536;HTU21D;9913;51.168;4.124;2024-02-26T01:03:11;6.56;92.45
19536;HTU21D;9913;51.168;4.124;2024-02-26T01:05:40;6.56;92.17
19536;HTU21D;9913;51.168;4.124;2024-02-26T01:08:09;6.57;92.33
19536;HTU21D;9913;51.168;4.124;2024-02-26T01:10:37;6.52;92.42
19536;HTU21D;9913;51.168;4.124;2024-02-26T01:13:07;6.54;92.32
19536;HTU21D;9913;51.168;4.124;2024-02-26T01:15:35;6.52;92.30
19536;HTU21D;9913;51.168;4.124;2024-02-26T01:18:04;6.52;92.09
19536;HTU21D;9913;51.168;4.124;2024-02-26T01:20:32;6.49;92.11
19536;HTU21D;9913;51.168;4.124;2024-02-26T01:23:01;6.46;92.05
19536;HTU21D;9913;51.168;4.124;2024-02-26T01:25:29;6.43;92.09
19536;HTU21D;9913;51.168;4.124;2024-02-26T01:27:57;6.48;92.11
19536;HTU21D;9913;51.168;4.124;2024-02-26T01:30:27;6.41;91.99
19536;HTU21D;9913;51.168;4.124;2024-02-26T01:32:55;6.38;92.11
19536;HTU21D;9913;51.168;4.124;2024-02-26T01:35:24;6.39;92.03
19536;HTU21D;9913;51.168;4.124;2024-02-26T01:37:53;6.38;92.21
19536;HTU21D;9913;51.168;4.124;2024-02-26T01:40:21;6.37;92.08
19536;HTU21D;9913;51.168;4.124;2024-02-26T01:42:52;6.34;91.91
19536;HTU21D;9913;51.168;4.124;2024-02-26T01:45:20;6.33;92.15
19536;HTU21D;9913;51.168;4.124;2024-02-26T01:47:54;6.34;92.17
19536;HTU21D;9913;51.168;4.124;2024-02-26T01:50:23;6.30;91.95
19536;HTU21D;9913;51.168;4.124;2024-02-26T01:52:53;6.30;92.14
19536;HTU21D;9913;51.168;4.124;2024-02-26T01:55:23;6.28;92.18
19536;HTU21D;9913;51.168;4.124;2024-02-26T01:57:52;6.28;92.38
19536;HTU21D;9913;51.168;4.124;2024-02-26T02:00:22;6.28;92.25
19536;HTU21D;9913;51.168;4.124;2024-02-26T02:02:52;6.27;92.05
19536;HTU21D;9913;51.168;4.124;2024-02-26T02:05:22;6.27;91.69
19536;HTU21D;9913;51.168;4.124;2024-02-26T02:07:51;6.24;92.30
19536;HTU21D;9913;51.168;4.124;2024-02-26T02:10:20;6.23;92.14
19536;HTU21D;9913;51.168;4.124;2024-02-26T02:12:52;6.22;91.90
19536;HTU21D;9913;51.168;4.124;2024-02-26T02:15:21;6.24;91.89
19536;HTU21D;9913;51.168;4.124;2024-02-26T02:17:49;6.20;92.10
19536;HTU21D;9913;51.168;4.124;2024-02-26T02:20:24;6.23;92.43
19536;HTU21D;9913;51.168;4.124;2024-02-26T02:22:54;6.20;92.34
19536;HTU21D;9913;51.168;4.124;2024-02-26T02:25:22;6.22;92.37
19536;HTU21D;9913;51.168;4.124;2024-02-26T02:27:52;6.14;92.10
19536;HTU21D;9913;51.168;4.124;2024-02-26T02:30:21;6.16;92.17
19536;HTU21D;9913;51.168;4.124;2024-02-26T02:32:52;6.12;92.39
19536;HTU21D;9913;51.168;4.124;2024-02-26T02:35:21;6.12;92.37
19536;HTU21D;9913;51.168;4.124;2024-02-26T02:37:51;6.10;92.24
19536;HTU21D;9913;51.168;4.124;2024-02-26T02:40:20;6.05;92.13
19536;HTU21D;9913;51.168;4.124;2024-02-26T02:42:48;6.05;92.31
19536;HTU21D;9913;51.168;4.124;2024-02-26T02:45:16;6.06;92.03
19536;HTU21D;9913;51.168;4.124;2024-02-26T02:47:45;6.06;92.11
19536;HTU21D;9913;51.168;4.124;2024-02-26T02:50:13;6.00;92.14
19536;HTU21D;9913;51.168;4.124;2024-02-26T02:52:42;5.98;92.19
19536;HTU21D;9913;51.168;4.124;2024-02-26T02:55:12;5.97;92.13
19536;HTU21D;9913;51.168;4.124;2024-02-26T02:57:40;5.92;92.07
19536;HTU21D;9913;51.168;4.124;2024-02-26T03:00:10;5.96;92.30
19536;HTU21D;9913;51.168;4.124;2024-02-26T03:02:39;5.86;92.31
19536;HTU21D;9913;51.168;4.124;2024-02-26T03:05:08;5.93;92.94
19536;HTU21D;9913;51.168;4.124;2024-02-26T03:07:37;5.86;92.59
19536;HTU21D;9913;51.168;4.124;2024-02-26T03:10:05;5.89;92.80
19536;HTU21D;9913;51.168;4.124;2024-02-26T03:12:35;5.89;92.86
19536;HTU21D;9913;51.168;4.124;2024-02-26T03:15:04;5.90;92.73
19536;HTU21D;9913;51.168;4.124;2024-02-26T03:17:33;5.89;92.42
19536;HTU21D;9913;51.168;4.124;2024-02-26T03:20:01;5.87;92.75
19536;HTU21D;9913;51.168;4.124;2024-02-26T03:22:31;5.90;92.92
19536;HTU21D;9913;51.168;4.124;2024-02-26T03:24:59;5.93;93.02
19536;HTU21D;9913;51.168;4.124;2024-02-26T03:27:28;5.89;92.40
19536;HTU21D;9913;51.168;4.124;2024-02-26T03:29:58;5.87;92.46
19536;HTU21D;9913;51.168;4.124;2024-02-26T03:32:26;5.90;93.12
19536;HTU21D;9913;51.168;4.124;2024-02-26T03:34:55;5.90;93.25
19536;HTU21D;9913;51.168;4.124;2024-02-26T03:37:23;5.89;93.30
19536;HTU21D;9913;51.168;4.124;2024-02-26T03:39:51;5.84;92.71
19536;HTU21D;9913;51.168;4.124;2024-02-26T03:42:20;5.82;92.73
19536;HTU21D;9913;51.168;4.124;2024-02-26T03:44:48;5.83;93.37
19536;HTU21D;9913;51.168;4.124;2024-02-26T03:47:18;5.82;93.63
19536;HTU21D;9913;51.168;4.124;2024-02-26T03:49:46;5.81;93.36
19536;HTU21D;9913;51.168;4.124;2024-02-26T03:52:15;5.82;93.20
19536;HTU21D;9913;51.168;4.124;2024-02-26T03:54:43;5.86;93.28
19536;HTU21D;9913;51.168;4.124;2024-02-26T03:57:12;5.85;93.47
19536;HTU21D;9913;51.168;4.124;2024-02-26T03:59:40;5.84;93.39
19536;HTU21D;9913;51.168;4.124;2024-02-26T04:02:09;5.87;93.14
19536;HTU21D;9913;51.168;4.124;2024-02-26T04:04:39;5.89;93.33
19536;HTU21D;9913;51.168;4.124;2024-02-26T04:07:07;5.87;93.37
19536;HTU21D;9913;51.168;4.124;2024-02-26T04:09:36;5.87;93.14
19536;HTU21D;9913;51.168;4.124;2024-02-26T04:12:05;5.89;92.37
19536;HTU21D;9913;51.168;4.124;2024-02-26T04:14:33;5.91;92.69
19536;HTU21D;9913;51.168;4.124;2024-02-26T04:17:01;5.93;92.93
19536;HTU21D;9913;51.168;4.124;2024-02-26T04:19:30;5.98;92.85
19536;HTU21D;9913;51.168;4.124;2024-02-26T04:21:59;5.94;92.59
19536;HTU21D;9913;51.168;4.124;2024-02-26T04:24:28;5.95;93.16
19536;HTU21D;9913;51.168;4.124;2024-02-26T04:26:56;5.97;93.15
19536;HTU21D;9913;51.168;4.124;2024-02-26T04:29:25;5.99;93.09
19536;HTU21D;9913;51.168;4.124;2024-02-26T04:31:53;5.98;93.16
19536;HTU21D;9913;51.168;4.124;2024-02-26T04:34:21;5.95;92.70
19536;HTU21D;9913;51.168;4.124;2024-02-26T04:36:50;5.97;92.55
19536;HTU21D;9913;51.168;4.124;2024-02-26T04:39:19;5.98;92.47
19536;HTU21D;9913;51.168;4.124;2024-02-26T04:41:48;5.98;92.27
19536;HTU21D;9913;51.168;4.124;2024-02-26T04:44:16;5.95;92.30
19536;HTU21D;9913;51.168;4.124;2024-02-26T04:46:44;6.04;92.50
19536;HTU21D;9913;51.168;4.124;2024-02-26T04:49:12;6.00;92.78
19536;HTU21D;9913;51.168;4.124;2024-02-26T04:51:41;5.99;92.58
19536;HTU21D;9913;51.168;4.124;2024-02-26T04:54:09;6.00;92.72
19536;HTU21D;9913;51.168;4.124;2024-02-26T04:56:39;5.98;92.32
19536;HTU21D;9913;51.168;4.124;2024-02-26T04:59:07;6.00;92.34
19536;HTU21D;9913;51.168;4.124;2024-02-26T05:01:35;5.98;92.20
19536;HTU21D;9913;51.168;4.124;2024-02-26T05:04:04;5.94;92.30
19536;HTU21D;9913;51.168;4.124;2024-02-26T05:06:33;5.93;92.97
19536;HTU21D;9913;51.168;4.124;2024-02-26T05:09:01;5.94;93.02
19536;HTU21D;9913;51.168;4.124;2024-02-26T05:11:30;5.93;93.10
19536;HTU21D;9913;51.168;4.124;2024-02-26T05:14:00;5.96;93.21
19536;HTU21D;9913;51.168;4.124;2024-02-26T05:16:28;5.91;92.68
19536;HTU21D;9913;51.168;4.124;2024-02-26T05:18:57;5.89;92.75
19536;HTU21D;9913;51.168;4.124;2024-02-26T05:21:26;5.89;92.98
19536;HTU21D;9913;51.168;4.124;2024-02-26T05:23:54;5.87;93.01
19536;HTU21D;9913;51.168;4.124;2024-02-26T05:26:23;5.82;93.69
19536;HTU21D;9913;51.168;4.124;2024-02-26T05:28:51;5.87;93.30
19536;HTU21D;9913;51.168;4.124;2024-02-26T05:31:21;5.85;93.33
19536;HTU21D;9913;51.168;4.124;2024-02-26T05:33:49;5.78;93.82
19536;HTU21D;9913;51.168;4.124;2024-02-26T05:36:18;5.80;93.70
19536;HTU21D;9913;51.168;4.124;2024-02-26T05:38:48;5.83;92.97
19536;HTU21D;9913;51.168;4.124;2024-02-26T05:41:17;5.81;93.18
19536;HTU21D;9913;51.168;4.124;2024-02-26T05:43:50;5.80;94.15
19536;HTU21D;9913;51.168;4.124;2024-02-26T05:46:18;5.81;94.06
19536;HTU21D;9913;51.168;4.124;2024-02-26T05:48:50;5.80;94.08
19536;HTU21D;9913;51.168;4.124;2024-02-26T05:51:19;5.79;93.49
19536;HTU21D;9913;51.168;4.124;2024-02-26T05:53:47;5.78;93.40
19536;HTU21D;9913;51.168;4.124;2024-02-26T05:56:21;5.72;93.65
19536;HTU21D;9913;51.168;4.124;2024-02-26T05:58:50;5.76;93.98
19536;HTU21D;9913;51.168;4.124;2024-02-26T06:01:20;5.75;93.76
19536;HTU21D;9913;51.168;4.124;2024-02-26T06:03:50;5.77;93.66
19536;HTU21D;9913;51.168;4.124;2024-02-26T06:06:18;5.76;92.97
19536;HTU21D;9913;51.168;4.124;2024-02-26T06:08:49;5.75;93.46
19536;HTU21D;9913;51.168;4.124;2024-02-26T06:11:17;5.70;93.35
19536;HTU21D;9913;51.168;4.124;2024-02-26T06:13:46;5.70;94.07
19536;HTU21D;9913;51.168;4.124;2024-02-26T06:16:14;5.70;93.95
19536;HTU21D;9913;51.168;4.124;2024-02-26T06:18:43;5.69;94.12
19536;HTU21D;9913;51.168;4.124;2024-02-26T06:21:12;5.70;92.97
19536;HTU21D;9913;51.168;4.124;2024-02-26T06:23:41;5.70;92.43
19536;HTU21D;9913;51.168;4.124;2024-02-26T06:26:09;5.70;93.24
19536;HTU21D;9913;51.168;4.124;2024-02-26T06:28:38;5.67;93.24
19536;HTU21D;9913;51.168;4.124;2024-02-26T06:31:08;5.69;93.97
19536;HTU21D;9913;51.168;4.124;2024-02-26T06:33:36;5.64;93.28
19536;HTU21D;9913;51.168;4.124;2024-02-26T06:36:05;5.65;93.21
19536;HTU21D;9913;51.168;4.124;2024-02-26T06:38:35;5.64;93.25
19536;HTU21D;9913;51.168;4.124;2024-02-26T06:41:03;5.65;92.96
19536;HTU21D;9913;51.168;4.124;2024-02-26T06:43:32;5.57;92.66
19536;HTU21D;9913;51.168;4.124;2024-02-26T06:46:00;5.56;93.78
19536;HTU21D;9913;51.168;4.124;2024-02-26T06:48:29;5.54;93.63
19536;HTU21D;9913;51.168;4.124;2024-02-26T06:50:57;5.55;93.69
19536;HTU21D;9913;51.168;4.124;2024-02-26T06:53:25;5.62;94.11
19536;HTU21D;9913;51.168;4.124;2024-02-26T06:55:55;5.56;93.37
19536;HTU21D;9913;51.168;4.124;2024-02-26T06:58:24;5.56;92.50
19536;HTU21D;9913;51.168;4.124;2024-02-26T07:00:52;5.61;91.46
19536;HTU21D;9913;51.168;4.124;2024-02-26T07:03:21;5.60;91.12
19536;HTU21D;9913;51.168;4.124;2024-02-26T07:05:51;5.62;92.05
19536;HTU21D;9913;51.168;4.124;2024-02-26T07:08:20;5.60;92.00
19536;HTU21D;9913;51.168;4.124;2024-02-26T07:10:48;5.57;92.53
19536;HTU21D;9913;51.168;4.124;2024-02-26T07:13:18;5.62;92.72
19536;HTU21D;9913;51.168;4.124;2024-02-26T07:15:46;5.63;92.44
19536;HTU21D;9913;51.168;4.124;2024-02-26T07:18:15;5.64;91.68
19536;HTU21D;9913;51.168;4.124;2024-02-26T07:20:43;5.65;91.75
19536;HTU21D;9913;51.168;4.124;2024-02-26T07:23:11;5.64;91.87
19536;HTU21D;9913;51.168;4.124;2024-02-26T07:25:40;5.62;92.33
19536;HTU21D;9913;51.168;4.124;2024-02-26T07:28:14;5.62;92.28
19536;HTU21D;9913;51.168;4.124;2024-02-26T07:30:44;5.66;91.74
19536;HTU21D;9913;51.168;4.124;2024-02-26T07:33:12;5.65;91.76
19536;HTU21D;9913;51.168;4.124;2024-02-26T07:35:41;5.62;91.98
19536;HTU21D;9913;51.168;4.124;2024-02-26T07:38:09;5.64;91.63
19536;HTU21D;9913;51.168;4.124;2024-02-26T07:40:54;5.67;92.24
19536;HTU21D;9913;51.168;4.124;2024-02-26T07:43:29;5.62;92.46
19536;HTU21D;9913;51.168;4.124;2024-02-26T07:46:00;5.65;92.91
19536;HTU21D;9913;51.168;4.124;2024-02-26T07:48:28;5.63;92.46
19536;HTU21D;9913;51.168;4.124;2024-02-26T07:50:57;5.66;92.79
19536;HTU21D;9913;51.168;4.124;2024-02-26T07:53:27;5.67;92.46
19536;HTU21D;9913;51.168;4.124;2024-02-26T07:55:55;5.70;92.02
19536;HTU21D;9913;51.168;4.124;2024-02-26T07:58:23;5.67;92.40
19536;HTU21D;9913;51.168;4.124;2024-02-26T08:00:52;5.71;91.81
19536;HTU21D;9913;51.168;4.124;2024-02-26T08:03:21;5.69;91.60
19536;HTU21D;9913;51.168;4.124;2024-02-26T08:05:50;5.74;91.93
19536;HTU21D;9913;51.168;4.124;2024-02-26T08:08:21;5.71;91.62
19536;HTU21D;9913;51.168;4.124;2024-02-26T08:10:49;5.74;92.20
19536;HTU21D;9913;51.168;4.124;2024-02-26T08:13:17;5.67;92.22
19536;HTU21D;9913;51.168;4.124;2024-02-26T08:15:46;5.66;92.08
19536;HTU21D;9913;51.168;4.124;2024-02-26T08:18:14;5.68;92.50
19536;HTU21D;9913;51.168;4.124;2024-02-26T08:20:44;5.69;92.72
19536;HTU21D;9913;51.168;4.124;2024-02-26T08:23:13;5.63;92.64
19536;HTU21D;9913;51.168;4.124;2024-02-26T08:25:41;5.57;92.53
19536;HTU21D;9913;51.168;4.124;2024-02-26T08:28:09;5.67;92.95
19536;HTU21D;9913;51.168;4.124;2024-02-26T08:30:40;5.62;92.75
19536;HTU21D;9913;51.168;4.124;2024-02-26T08:33:08;5.56;92.88
19536;HTU21D;9913;51.168;4.124;2024-02-26T08:35:37;5.60;93.15
19536;HTU21D;9913;51.168;4.124;2024-02-26T08:38:07;5.56;93.65
19536;HTU21D;9913;51.168;4.124;2024-02-26T08:40:35;5.55;93.39
19536;HTU21D;9913;51.168;4.124;2024-02-26T08:43:04;5.60;93.40
19536;HTU21D;9913;51.168;4.124;2024-02-26T08:45:32;5.62;93.68
19536;HTU21D;9913;51.168;4.124;2024-02-26T08:48:01;5.54;93.50
19536;HTU21D;9913;51.168;4.124;2024-02-26T08:50:29;5.54;93.54
19536;HTU21D;9913;51.168;4.124;2024-02-26T08:52:57;5.53;93.17
19536;HTU21D;9913;51.168;4.124;2024-02-26T08:55:33;5.54;93.56
19536;HTU21D;9913;51.168;4.124;2024-02-26T08:58:02;5.57;93.80
19536;HTU21D;9913;51.168;4.124;2024-02-26T09:00:30;5.60;94.04
19536;HTU21D;9913;51.168;4.124;2024-02-26T09:02:59;5.56;94.07
19536;HTU21D;9913;51.168;4.124;2024-02-26T09:05:31;5.57;93.78
19536;HTU21D;9913;51.168;4.124;2024-02-26T09:08:00;5.61;93.24
19536;HTU21D;9913;51.168;4.124;2024-02-26T09:10:28;5.62;93.06
19536;HTU21D;9913;51.168;4.124;2024-02-26T09:12:58;5.54;93.29
19536;HTU21D;9913;51.168;4.124;2024-02-26T09:15:26;5.53;93.11
19536;HTU21D;9913;51.168;4.124;2024-02-26T09:17:54;5.54;92.85
19536;HTU21D;9913;51.168;4.124;2024-02-26T09:20:23;5.53;93.28
19536;HTU21D;9913;51.168;4.124;2024-02-26T09:22:51;5.53;92.87
19536;HTU21D;9913;51.168;4.124;2024-02-26T09:25:20;5.49;93.03
19536;HTU21D;9913;51.168;4.124;2024-02-26T09:27:48;5.46;93.52
19536;HTU21D;9913;51.168;4.124;2024-02-26T09:30:19;5.53;93.51
19536;HTU21D;9913;51.168;4.124;2024-02-26T09:32:47;5.53;93.29
19536;HTU21D;9913;51.168;4.124;2024-02-26T09:35:16;5.50;93.56
19536;HTU21D;9913;51.168;4.124;2024-02-26T09:37:44;5.53;93.91
19536;HTU21D;9913;51.168;4.124;2024-02-26T09:40:12;5.63;94.60
19536;HTU21D;9913;51.168;4.124;2024-02-26T09:42:43;5.54;94.01
19536;HTU21D;9913;51.168;4.124;2024-02-26T09:45:18;5.53;93.45
19536;HTU21D;9913;51.168;4.124;2024-02-26T09:47:48;5.56;93.54
19536;HTU21D;9913;51.168;4.124;2024-02-26T09:50:17;5.50;94.30
19536;HTU21D;9913;51.168;4.124;2024-02-26T09:52:51;5.53;93.91
19536;HTU21D;9913;51.168;4.124;2024-02-26T09:55:19;5.52;93.98
19536;HTU21D;9913;51.168;4.124;2024-02-26T09:57:48;5.60;95.02
19536;HTU21D;9913;51.168;4.124;2024-02-26T10:00:21;5.55;93.80
19536;HTU21D;9913;51.168;4.124;2024-02-26T10:02:50;5.52;93.60
19536;HTU21D;9913;51.168;4.124;2024-02-26T10:05:19;5.60;94.26
19536;HTU21D;9913;51.168;4.124;2024-02-26T10:07:48;5.54;93.73
19536;HTU21D;9913;51.168;4.124;2024-02-26T10:10:17;5.53;93.69
19536;HTU21D;9913;51.168;4.124;2024-02-26T10:12:45;5.54;93.62
19536;HTU21D;9913;51.168;4.124;2024-02-26T10:15:14;5.53;93.53
19536;HTU21D;9913;51.168;4.124;2024-02-26T10:17:44;5.54;93.39
19536;HTU21D;9913;51.168;4.124;2024-02-26T10:20:13;5.53;93.95
19536;HTU21D;9913;51.168;4.124;2024-02-26T10:22:43;5.50;93.19
19536;HTU21D;9913;51.168;4.124;2024-02-26T10:25:12;5.46;92.39
19536;HTU21D;9913;51.168;4.124;2024-02-26T10:27:41;5.53;92.34
19536;HTU21D;9913;51.168;4.124;2024-02-26T10:30:17;5.48;92.25
19536;HTU21D;9913;51.168;4.124;2024-02-26T10:32:48;5.47;92.97
19536;HTU21D;9913;51.168;4.124;2024-02-26T10:35:18;5.49;93.01
19536;HTU21D;9913;51.168;4.124;2024-02-26T10:37:49;5.45;93.01
19536;HTU21D;9913;51.168;4.124;2024-02-26T10:40:18;5.53;92.93
19536;HTU21D;9913;51.168;4.124;2024-02-26T10:42:46;5.60;92.88
19536;HTU21D;9913;51.168;4.124;2024-02-26T10:45:14;5.55;92.95
19536;HTU21D;9913;51.168;4.124;2024-02-26T10:47:43;5.57;92.77
19536;HTU21D;9913;51.168;4.124;2024-02-26T10:50:14;5.53;92.53
19536;HTU21D;9913;51.168;4.124;2024-02-26T10:52:44;5.57;92.63
19536;HTU21D;9913;51.168;4.124;2024-02-26T10:55:16;5.57;92.40
19536;HTU21D;9913;51.168;4.124;2024-02-26T10:57:47;5.60;92.45
19536;HTU21D;9913;51.168;4.124;2024-02-26T11:00:16;5.62;92.62
19536;HTU21D;9913;51.168;4.124;2024-02-26T11:02:45;5.65;93.27
19536;HTU21D;9913;51.168;4.124;2024-02-26T11:05:17;5.66;92.86
19536;HTU21D;9913;51.168;4.124;2024-02-26T11:07:45;5.62;92.88
19536;HTU21D;9913;51.168;4.124;2024-02-26T11:10:15;5.68;93.09
19536;HTU21D;9913;51.168;4.124;2024-02-26T11:12:45;5.69;93.17
19536;HTU21D;9913;51.168;4.124;2024-02-26T11:15:15;5.74;93.14
19536;HTU21D;9913;51.168;4.124;2024-02-26T11:17:46;5.66;92.35
19536;HTU21D;9913;51.168;4.124;2024-02-26T11:20:16;5.72;92.17
19536;HTU21D;9913;51.168;4.124;2024-02-26T11:22:45;5.81;92.92
19536;HTU21D;9913;51.168;4.124;2024-02-26T11:25:14;5.71;92.65
19536;HTU21D;9913;51.168;4.124;2024-02-26T11:27:46;5.67;92.09
19536;HTU21D;9913;51.168;4.124;2024-02-26T11:30:17;5.66;92.89
19536;HTU21D;9913;51.168;4.124;2024-02-26T11:32:47;5.62;92.57
19536;HTU21D;9913;51.168;4.124;2024-02-26T11:35:17;5.63;92.53
19536;HTU21D;9913;51.168;4.124;2024-02-26T11:37:53;5.64;92.89
19536;HTU21D;9913;51.168;4.124;2024-02-26T11:40:24;5.60;93.11
19536;HTU21D;9913;51.168;4.124;2024-02-26T11:42:53;5.53;93.11
19536;HTU21D;9913;51.168;4.124;2024-02-26T11:45:50;5.56;92.84
19536;HTU21D;9913;51.168;4.124;2024-02-26T11:48:23;5.49;92.89
19536;HTU21D;9913;51.168;4.124;2024-02-26T11:50:55;5.46;92.49
19536;HTU21D;9913;51.168;4.124;2024-02-26T11:53:24;5.53;92.93
19536;HTU21D;9913;51.168;4.124;2024-02-26T11:56:19;5.52;92.95
19536;HTU21D;9913;51.168;4.124;2024-02-26T11:58:49;5.53;93.96
19536;HTU21D;9913;51.168;4.124;2024-02-26T12:01:44;5.57;93.70
19536;HTU21D;9913;51.168;4.124;2024-02-26T12:04:14;5.62;93.76
19536;HTU21D;9913;51.168;4.124;2024-02-26T12:06:46;5.55;93.48
19536;HTU21D;9913;51.168;4.124;2024-02-26T12:09:33;5.64;94.04
19536;HTU21D;9913;51.168;4.124;2024-02-26T12:12:04;5.68;93.45
19536;HTU21D;9913;51.168;4.124;2024-02-26T12:14:34;5.70;93.30
19536;HTU21D;9913;51.168;4.124;2024-02-26T12:17:04;5.71;93.70
19536;HTU21D;9913;51.168;4.124;2024-02-26T12:19:35;5.76;93.85
19536;HTU21D;9913;51.168;4.124;2024-02-26T12:22:13;5.67;93.65
19536;HTU21D;9913;51.168;4.124;2024-02-26T12:24:41;5.75;93.56
19536;HTU21D;9913;51.168;4.124;2024-02-26T12:27:09;5.74;93.94
19536;HTU21D;9913;51.168;4.124;2024-02-26T12:29:39;5.70;93.79
19536;HTU21D;9913;51.168;4.124;2024-02-26T12:32:07;5.64;93.72
19536;HTU21D;9913;51.168;4.124;2024-02-26T12:34:35;5.75;94.54
19536;HTU21D;9913;51.168;4.124;2024-02-26T12:37:04;5.67;94.85
19536;HTU21D;9913;51.168;4.124;2024-02-26T12:39:36;5.72;95.31
19536;HTU21D;9913;51.168;4.124;2024-02-26T12:42:05;5.66;94.54
19536;HTU21D;9913;51.168;4.124;2024-02-26T12:44:34;5.62;93.76
19536;HTU21D;9913;51.168;4.124;2024-02-26T12:47:03;5.67;94.29
19536;HTU21D;9913;51.168;4.124;2024-02-26T12:49:32;5.52;94.42
19536;HTU21D;9913;51.168;4.124;2024-02-26T12:52:01;5.61;93.69
19536;HTU21D;9913;51.168;4.124;2024-02-26T12:54:30;5.62;93.72
19536;HTU21D;9913;51.168;4.124;2024-02-26T12:57:03;5.57;93.37
19536;HTU21D;9913;51.168;4.124;2024-02-26T12:59:34;5.56;93.68
19536;HTU21D;9913;51.168;4.124;2024-02-26T13:02:04;5.62;94.20
19536;HTU21D;9913;51.168;4.124;2024-02-26T13:04:34;5.61;94.28
19536;HTU21D;9913;51.168;4.124;2024-02-26T13:07:04;5.61;93.85
19536;HTU21D;9913;51.168;4.124;2024-02-26T13:09:33;5.60;93.41
19536;HTU21D;9913;51.168;4.124;2024-02-26T13:12:06;5.62;94.48
19536;HTU21D;9913;51.168;4.124;2024-02-26T13:14:35;5.62;93.82
19536;HTU21D;9913;51.168;4.124;2024-02-26T13:17:04;5.57;93.59
19536;HTU21D;9913;51.168;4.124;2024-02-26T13:19:32;5.61;93.80
19536;HTU21D;9913;51.168;4.124;2024-02-26T13:22:05;5.60;93.68
19536;HTU21D;9913;51.168;4.124;2024-02-26T13:24:34;5.56;93.82
19536;HTU21D;9913;51.168;4.124;2024-02-26T13:27:05;5.60;94.53
19536;HTU21D;9913;51.168;4.124;2024-02-26T13:29:34;5.57;94.78
19536;HTU21D;9913;51.168;4.124;2024-02-26T13:32:03;5.67;94.23
19536;HTU21D;9913;51.168;4.124;2024-02-26T13:34:33;5.62;94.30
19536;HTU21D;9913;51.168;4.124;2024-02-26T13:37:02;5.67;94.32
19536;HTU21D;9913;51.168;4.124;2024-02-26T13:39:32;5.64;93.47
19536;HTU21D;9913;51.168;4.124;2024-02-26T13:42:08;5.60;93.65
19536;HTU21D;9913;51.168;4.124;2024-02-26T13:44:38;5.56;94.15
19536;HTU21D;9913;51.168;4.124;2024-02-26T13:47:08;5.66;94.88
19536;HTU21D;9913;51.168;4.124;2024-02-26T13:49:36;5.62;94.35
19536;HTU21D;9913;51.168;4.124;2024-02-26T13:52:05;5.63;94.07
19536;HTU21D;9913;51.168;4.124;2024-02-26T13:54:33;5.61;93.98
19536;HTU21D;9913;51.168;4.124;2024-02-26T13:57:02;5.55;93.30
19536;HTU21D;9913;51.168;4.124;2024-02-26T13:59:32;5.55;93.54
19536;HTU21D;9913;51.168;4.124;2024-02-26T14:02:01;5.56;93.58
19536;HTU21D;9913;51.168;4.124;2024-02-26T14:04:30;5.53;93.64
19536;HTU21D;9913;51.168;4.124;2024-02-26T14:06:58;5.59;93.80
19536;HTU21D;9913;51.168;4.124;2024-02-26T14:09:27;5.57;94.27
19536;HTU21D;9913;51.168;4.124;2024-02-26T14:12:09;5.64;93.94
19536;HTU21D;9913;51.168;4.124;2024-02-26T14:14:39;5.61;92.68
19536;HTU21D;9913;51.168;4.124;2024-02-26T14:17:09;5.64;94.01
19536;HTU21D;9913;51.168;4.124;2024-02-26T14:19:38;5.64;94.49
19536;HTU21D;9913;51.168;4.124;2024-02-26T14:22:11;5.61;94.03
19536;HTU21D;9913;51.168;4.124;2024-02-26T14:24:39;5.63;93.98
19536;HTU21D;9913;51.168;4.124;2024-02-26T14:27:10;5.65;94.54
19536;HTU21D;9913;51.168;4.124;2024-02-26T14:29:40;5.61;94.47
19536;HTU21D;9913;51.168;4.124;2024-02-26T14:32:09;5.62;94.69
19536;HTU21D;9913;51.168;4.124;2024-02-26T14:34:37;5.67;94.88
19536;HTU21D;9913;51.168;4.124;2024-02-26T14:37:06;5.60;94.02
19536;HTU21D;9913;51.168;4.124;2024-02-26T14:39:34;5.67;93.50
19536;HTU21D;9913;51.168;4.124;2024-02-26T14:42:03;5.70;93.90
19536;HTU21D;9913;51.168;4.124;2024-02-26T14:44:31;5.74;93.78
19536;HTU21D;9913;51.168;4.124;2024-02-26T14:47:01;5.69;92.87
19536;HTU21D;9913;51.168;4.124;2024-02-26T14:49:30;5.69;93.00
19536;HTU21D;9913;51.168;4.124;2024-02-26T14:51:59;5.63;92.72
19536;HTU21D;9913;51.168;4.124;2024-02-26T14:54:30;5.67;93.11
19536;HTU21D;9913;51.168;4.124;2024-02-26T14:56:59;5.66;93.71
19536;HTU21D;9913;51.168;4.124;2024-02-26T14:59:28;5.75;94.23
19536;HTU21D;9913;51.168;4.124;2024-02-26T15:01:56;5.72;94.01
19536;HTU21D;9913;51.168;4.124;2024-02-26T15:04:27;5.78;94.44
19536;HTU21D;9913;51.168;4.124;2024-02-26T15:06:56;5.79;95.56
19536;HTU21D;9913;51.168;4.124;2024-02-26T15:09:25;5.77;94.21
19536;HTU21D;9913;51.168;4.124;2024-02-26T15:11:53;5.77;94.77
19536;HTU21D;9913;51.168;4.124;2024-02-26T15:14:21;5.69;94.42
19536;HTU21D;9913;51.168;4.124;2024-02-26T15:16:51;5.70;94.66
19536;HTU21D;9913;51.168;4.124;2024-02-26T15:19:20;5.71;95.14
19536;HTU21D;9913;51.168;4.124;2024-02-26T15:21:49;5.69;94.84
19536;HTU21D;9913;51.168;4.124;2024-02-26T15:24:18;5.75;95.43
19536;HTU21D;9913;51.168;4.124;2024-02-26T15:26:46;5.69;95.30
19536;HTU21D;9913;51.168;4.124;2024-02-26T15:29:14;5.78;95.09
19536;HTU21D;9913;51.168;4.124;2024-02-26T15:31:43;5.77;94.91
19536;HTU21D;9913;51.168;4.124;2024-02-26T15:34:11;5.81;94.97
19536;HTU21D;9913;51.168;4.124;2024-02-26T15:36:40;5.77;95.97
19536;HTU21D;9913;51.168;4.124;2024-02-26T15:39:10;5.74;95.23
19536;HTU21D;9913;51.168;4.124;2024-02-26T15:41:39;5.77;94.96
19536;HTU21D;9913;51.168;4.124;2024-02-26T15:44:07;5.86;95.64
19536;HTU21D;9913;51.168;4.124;2024-02-26T15:46:39;5.82;95.21
19536;HTU21D;9913;51.168;4.124;2024-02-26T15:49:08;5.79;95.39
19536;HTU21D;9913;51.168;4.124;2024-02-26T15:51:42;5.79;94.85
19536;HTU21D;9913;51.168;4.124;2024-02-26T15:54:12;5.75;95.07
19536;HTU21D;9913;51.168;4.124;2024-02-26T15:56:41;5.76;95.08
19536;HTU21D;9913;51.168;4.124;2024-02-26T15:59:10;5.69;95.06